Skip Navigation LinksHome page > Weather > Current weather Skip Navigation Links

Current Weather

Pittsburgh International, Pittsburgh, Penn.

For information only: do not use for flight planning or navigation.
Latest weather
Observation time Friday, October 30, 2020 6:51 PM EDT
Local time Friday, October 30, 2020 7:26 PM EDT
Flight conditions Visual Meteorological Conditions
Winds
Wind direction North-Northwest (330°)
Wind speed 12 mph
Visibility 10 mi.
Sky condition
Ceiling 5,500 ft. overcast
Cloud layer few clouds 3,000 ft.
Cloud layer overcast 5,500 ft.
Temperature 40°F
Dewpoint 31°F
Altimeter 30.22 in.Hg
Derived measurements
Relative humidity 70%
Wind chill 33°F
Density altitude -333 ft.
Sea-level pressure 30.27 in.Hg
Remarks
Automated weather observing station with precipitation discriminator.
Breaks in overcast.
METAR KPIT 302251Z 33010KT 10SM FEW030 OVC055 04/M01 A3022 RMK AO2 SLP250 BINOVC T00441006

Settings

Location code

InnerDrive.Weather 4.0.6770.0 Release CLR 4.0.30319.42000
Copyright ©2018 Inner Drive Technology. All rights reserved. Portions Copyright ©1986-2018 David Braverman.

Find weather

Site navigation


Skip Navigation Links

Place info

Page info

PayPal - The safer, easier way to pay online!

Return home.

Copyright ©2020 Inner Drive Technology. Purveyors of fine, hand-crafted computer software. Page printed 2020-10-30T23:26:45 UTC.